Temp: 4.1°C   Baro: 1026.3mb
  Wind: 2.9mph   Dir: ESE (121°)
  Rain: 0.0mm (0.0mm/hr)
  Solar: 67W/m2  Hum: 97%

Historic data

Bath Spa Weather Station Historical Data
Daily Summary for September 30, 2022 Units:  English    Metric   Both
Daily Weekly Monthly Yearly Custom
  High: Low: Average:
Temperature: 59.4 °F 40.5 °F 51.6 °F
Dew Point: 57.4 °F 38.7 °F 48.9 °F
Humidity: 94% 81% 91%
Wind Speed: 12.6mph 0mph 4.2mph
Wind Gust: 24mph - -
Wind- - WSW
Pressure: 29.85 in 29.49 in -
Precipitation: 0.20 in    
Historical Graphs
 
 
Tabular Data for September 30, 2022
Time Temperature Dew Point Pressure Wind Wind Speed Wind Gust Humidity Rainfall Rate (Hourly) solar
00:09 44.6 °F 42.1 °F 29.85 in Calm     91% 0.00 in 0 W/m2
00:14 44.4 °F 41.9 °F 29.85 in Calm     91% 0.00 in 0 W/m2
00:19 44.3 °F 41.8 °F 29.85 in NW 0.8 mph 2 mph 91% 0.00 in 0 W/m2
00:24 44.2 °F 41.7 °F 29.85 in Calm   1 mph 91% 0.00 in 0 W/m2
00:29 44.1 °F 41.6 °F 29.85 in Calm   1 mph 91% 0.00 in 0 W/m2
00:34 44.1 °F 41.5 °F 29.85 in NW 0.2 mph 1 mph 91% 0.00 in 0 W/m2
00:39 44 °F 41.4 °F 29.84 in Calm     91% 0.00 in 0 W/m2
00:44 43.9 °F 41.4 °F 29.85 in Calm     91% 0.00 in 0 W/m2
00:49 43.7 °F 41.2 °F 29.85 in NW 1.6 mph 3 mph 91% 0.00 in 0 W/m2
00:54 43.8 °F 41.3 °F 29.85 in NW 2 mph 3 mph 91% 0.00 in 0 W/m2
00:59 43.9 °F 41.4 °F 29.84 in NW 0.4 mph 3 mph 91% 0.00 in 0 W/m2
01:04 43.9 °F 41.6 °F 29.84 in Calm     91.4% 0.00 in 0 W/m2
01:09 43.9 °F 41.5 °F 29.84 in Calm     91.4% 0.00 in 0 W/m2
01:14 43.9 °F 41.7 °F 29.84 in Calm     92% 0.00 in 0 W/m2
01:19 43.7 °F 41.5 °F 29.84 in Calm     92% 0.00 in 0 W/m2
01:24 43.7 °F 41.5 °F 29.84 in Calm   1 mph 92% 0.00 in 0 W/m2
01:29 43.5 °F 41.4 °F 29.84 in Calm   1 mph 92% 0.00 in 0 W/m2
01:34 43.5 °F 41.4 °F 29.84 in Calm   1 mph 92% 0.00 in 0 W/m2
01:39 43.4 °F 41.3 °F 29.84 in NW 0.2 mph 2 mph 92% 0.00 in 0 W/m2
01:44 43.3 °F 41.2 °F 29.84 in Calm   1 mph 92% 0.00 in 0 W/m2
01:49 43.2 °F 41 °F 29.84 in NW 0.5 mph 2 mph 92% 0.00 in 0 W/m2
01:54 43.1 °F 40.9 °F 29.84 in NW 0.4 mph 1 mph 92% 0.00 in 0 W/m2
01:59 43.2 °F 41 °F 29.84 in Calm     92% 0.00 in 0 W/m2
02:04 43.2 °F 41 °F 29.84 in Calm     92% 0.00 in 0 W/m2
02:09 43.2 °F 41 °F 29.84 in Calm     92% 0.00 in 0 W/m2
02:14 43.2 °F 41 °F 29.84 in Calm     92% 0.00 in 0 W/m2
02:19 43.1 °F 40.9 °F 29.84 in Calm     92% 0.00 in 0 W/m2
02:24 43 °F 40.8 °F 29.84 in Calm     92% 0.00 in 0 W/m2
02:29 43 °F 40.8 °F 29.84 in Calm     92% 0.00 in 0 W/m2
02:34 42.8 °F 40.6 °F 29.84 in NW 0.6 mph 2 mph 92% 0.00 in 0 W/m2
02:39 42.8 °F 40.6 °F 29.84 in NW 1.3 mph 2 mph 92% 0.00 in 0 W/m2
02:44 42.6 °F 40.5 °F 29.84 in NW 0.4 mph 2 mph 92% 0.00 in 0 W/m2
02:49 42.6 °F 40.5 °F 29.85 in Calm     92% 0.00 in 0 W/m2
02:54 42.5 °F 40.4 °F 29.85 in NW 0.4 mph 2 mph 92% 0.00 in 0 W/m2
02:59 42.3 °F 40.1 °F 29.85 in Calm   1 mph 92% 0.00 in 0 W/m2
03:03 42.1 °F 39.9 °F 29.85 in NW 0.5 mph 2 mph 92% 0.00 in 0 W/m2
03:09 42.1 °F 39.9 °F 29.85 in NW 1.3 mph 2 mph 92% 0.00 in 0 W/m2
03:14 42.1 °F 39.9 °F 29.85 in NW 0.5 mph 2 mph 92% 0.00 in 0 W/m2
03:19 42.2 °F 40 °F 29.85 in Calm   1 mph 92% 0.00 in 0 W/m2
03:24 42.3 °F 40.4 °F 29.85 in Calm     92.8% 0.00 in 0 W/m2
03:29 42.3 °F 40.5 °F 29.85 in Calm     93% 0.00 in 0 W/m2
03:34 42.1 °F 40.3 °F 29.85 in Calm     93% 0.00 in 0 W/m2
03:39 42 °F 40.2 °F 29.84 in Calm     93% 0.00 in 0 W/m2
03:44 41.8 °F 40 °F 29.85 in Calm     93% 0.00 in 0 W/m2
03:49 41.6 °F 39.8 °F 29.84 in Calm     93% 0.00 in 0 W/m2
03:54 41.5 °F 39.7 °F 29.84 in Calm     93% 0.00 in 0 W/m2
03:59 41.5 °F 39.7 °F 29.84 in Calm     93% 0.00 in 0 W/m2
04:04 41.5 °F 39.7 °F 29.84 in Calm     93% 0.00 in 0 W/m2
04:09 41.5 °F 39.7 °F 29.84 in Calm     93% 0.00 in 0 W/m2
04:14 41.5 °F 39.7 °F 29.84 in Calm     93% 0.00 in 0 W/m2
04:19 41.4 °F 39.6 °F 29.83 in Calm     93% 0.00 in 0 W/m2
04:24 41.4 °F 39.6 °F 29.83 in Calm     93% 0.00 in 0 W/m2
04:29 41.3 °F 39.5 °F 29.83 in Calm     93% 0.00 in 0 W/m2
04:34 41 °F 39.2 °F 29.83 in Calm     93% 0.00 in 0 W/m2
04:39 41 °F 39.2 °F 29.83 in Calm     93% 0.00 in 0 W/m2
04:44 41.1 °F 39.3 °F 29.84 in Calm     93% 0.00 in 0 W/m2
04:49 41.2 °F 39.4 °F 29.84 in Calm     93% 0.00 in 0 W/m2
04:54 41.2 °F 39.4 °F 29.84 in NW 0.2 mph 2 mph 93% 0.00 in 0 W/m2
04:59 41.2 °F 39.4 °F 29.84 in Calm   1 mph 93% 0.00 in 0 W/m2
05:04 41.2 °F 39.4 °F 29.84 in NW 0.6 mph 2 mph 93% 0.00 in 0 W/m2
05:08 41 °F 39.2 °F 29.84 in NW 0.2 mph 2 mph 93% 0.00 in 0 W/m2
05:14 41 °F 39.2 °F 29.84 in NW 0.2 mph 1 mph 93% 0.00 in 0 W/m2
05:19 41 °F 39.2 °F 29.84 in NW 0.2 mph 1 mph 93% 0.00 in 0 W/m2
05:24 41 °F 39.2 °F 29.83 in NW 0.2 mph 1 mph 93% 0.00 in 0 W/m2
05:29 40.8 °F 39 °F 29.83 in Calm   1 mph 93% 0.00 in 0 W/m2
05:34 40.8 °F 39 °F 29.83 in Calm     93% 0.00 in 0 W/m2
05:39 40.6 °F 38.8 °F 29.83 in Calm     93% 0.00 in 0 W/m2
05:44 40.8 °F 39 °F 29.83 in Calm     93% 0.00 in 0 W/m2
05:49 40.8 °F 39 °F 29.83 in Calm     93% 0.00 in 0 W/m2
05:54 40.6 °F 38.8 °F 29.84 in Calm     93% 0.00 in 0 W/m2
05:59 40.6 °F 38.8 °F 29.83 in Calm     93% 0.00 in 0 W/m2
06:03 40.5 °F 38.7 °F 29.83 in Calm     93% 0.00 in 0 W/m2
06:09 40.5 °F 38.7 °F 29.83 in Calm     93% 0.00 in 0 W/m2
06:14 40.5 °F 38.7 °F 29.83 in Calm     93% 0.00 in 0 W/m2
06:19 40.6 °F 38.8 °F 29.83 in Calm     93% 0.00 in 0 W/m2
06:24 41.2 °F 39.6 °F 29.83 in Calm     93.8% 0.00 in 0 W/m2
06:29 43.2 °F 41.6 °F 29.82 in Calm     94% 0.00 in 0 W/m2
06:34 43.9 °F 42.3 °F 29.82 in Calm     94% 0.00 in 0 W/m2
06:39 44.1 °F 42.4 °F 29.82 in Calm     94% 0.00 in 0 W/m2
06:44 43.7 °F 42.1 °F 29.82 in NW 0.4 mph 2 mph 94% 0.00 in 0 W/m2
06:49 43.5 °F 41.9 °F 29.81 in NW 0.2 mph 1 mph 94% 0.00 in 0 W/m2
06:54 43.3 °F 41.7 °F 29.81 in Calm     94% 0.00 in 0 W/m2
06:59 43.5 °F 41.9 °F 29.81 in Calm     94% 0.00 in 5 W/m2
07:04 44.5 °F 42.9 °F 29.81 in Calm     94% 0.00 in 7 W/m2
07:09 44.3 °F 42.7 °F 29.81 in Calm     94% 0.00 in 11 W/m2
07:14 43.9 °F 42.3 °F 29.81 in NW 0.2 mph 2 mph 94% 0.00 in 11 W/m2
07:19 45.5 °F 43.9 °F 29.82 in Calm     94% 0.00 in 14 W/m2
07:24 46.5 °F 44.9 °F 29.81 in Calm     94% 0.00 in 21 W/m2
07:29 46.6 °F 45 °F 29.81 in Calm     94% 0.00 in 30 W/m2
07:34 46.6 °F 45 °F 29.81 in Calm     94% 0.00 in 39 W/m2
07:39 46.6 °F 45 °F 29.80 in Calm     94% 0.00 in 44 W/m2
07:44 46.1 °F 44.3 °F 29.80 in NW 0.5 mph 2 mph 93.6% 0.00 in 44 W/m2
07:49 45.3 °F 43.3 °F 29.80 in NW 0.4 mph 2 mph 93% 0.00 in 46 W/m2
07:54 45.8 °F 43.8 °F 29.80 in Calm   2 mph 93% 0.00 in 53 W/m2
07:59 46 °F 44 °F 29.80 in Calm     93% 0.00 in 63 W/m2
08:03 45.3 °F 43.3 °F 29.80 in Calm     93% 0.00 in 84 W/m2
08:09 45.1 °F 43.1 °F 29.80 in Calm   1 mph 92.4% 0.00 in 107 W/m2
08:14 45.4 °F 43.4 °F 29.80 in NW 0.2 mph 2 mph 92.6% 0.00 in 111 W/m2
08:19 45.9 °F 44 °F 29.80 in NW 0.2 mph 1 mph 93% 0.00 in 109 W/m2
08:24 46.3 °F 44.4 °F 29.80 in Calm     93% 0.00 in 95 W/m2
08:29 47 °F 45 °F 29.79 in NW 0.2 mph 1 mph 93% 0.00 in 81 W/m2
08:34 47.7 °F 45.7 °F 29.79 in Calm   1 mph 93% 0.00 in 69 W/m2
08:39 47.7 °F 45.6 °F 29.79 in Calm     92.2% 0.00 in 56 W/m2
08:44 47.6 °F 45.5 °F 29.79 in Calm     92% 0.00 in 47 W/m2
08:49 47.9 °F 45.8 °F 29.79 in Calm     92% 0.00 in 49 W/m2
08:54 47.8 °F 45.6 °F 29.79 in Calm   1 mph 92% 0.00 in 72 W/m2
08:59 47.7 °F 45.5 °F 29.79 in Calm   1 mph 92% 0.00 in 100 W/m2
09:04 47.5 °F 45.3 °F 29.79 in NW 0.4 mph 2 mph 92% 0.00 in 118 W/m2
09:09 47.6 °F 45.4 °F 29.79 in NNW 2.2 mph 5 mph 92% 0.00 in 123 W/m2
09:14 48 °F 45.8 °F 29.79 in NNW 0.8 mph 4 mph 92% 0.00 in 116 W/m2
09:19 48.4 °F 46.2 °F 29.78 in NNW 0.4 mph 3 mph 92% 0.00 in 98 W/m2
09:24 48.6 °F 46.4 °F 29.78 in NNW 0.6 mph 3 mph 92% 0.00 in 88 W/m2
09:29 48.7 °F 46.6 °F 29.78 in NNW 0.4 mph 3 mph 92% 0.00 in 77 W/m2
09:34 49.2 °F 47 °F 29.78 in NNW 0.2 mph 2 mph 92% 0.00 in 77 W/m2
09:39 49.3 °F 47.1 °F 29.78 in NNW 0.2 mph 2 mph 92% 0.00 in 93 W/m2
09:44 49.1 °F 46.9 °F 29.78 in Calm     92% 0.00 in 139 W/m2
09:49 49.4 °F 47.3 °F 29.78 in NNW 0.4 mph 4 mph 92% 0.00 in 142 W/m2
09:54 49.9 °F 47.7 °F 29.77 in SSW 1.8 mph 6 mph 92% 0.00 in 113 W/m2
09:59 50.4 °F 48.3 °F 29.77 in Calm   6 mph 92% 0.00 in 104 W/m2
10:04 50.8 °F 48.6 °F 29.77 in South 0.8 mph 3 mph 92% 0.00 in 107 W/m2
10:09 51.3 °F 49.1 °F 29.77 in SW 3 mph 7 mph 91.8% 0.00 in 97 W/m2
10:14 51.8 °F 49.3 °F 29.77 in SSW 4.1 mph 7 mph 91% 0.00 in 72 W/m2
10:19 52.2 °F 49.6 °F 29.76 in SSW 4 mph 8 mph 90.8% 0.00 in 72 W/m2
10:24 52.6 °F 49.7 °F 29.77 in SSW 3.2 mph 10 mph 90% 0.00 in 88 W/m2
10:29 52.9 °F 49.6 °F 29.76 in SSW 5.2 mph 10 mph 88.8% 0.00 in 88 W/m2
10:34 53.1 °F 49.7 °F 29.76 in SSW 3.4 mph 9 mph 88% 0.00 in 104 W/m2
10:39 53.3 °F 49.6 °F 29.76 in SSW 2.8 mph 6 mph 87.2% 0.00 in 114 W/m2
10:44 53.5 °F 49.7 °F 29.76 in South 3.2 mph 6 mph 87% 0.00 in 123 W/m2
10:49 53.8 °F 49.7 °F 29.76 in SSW 2 mph 6 mph 86.2% 0.00 in 144 W/m2
10:54 54 °F 49.8 °F 29.76 in SSW 3.4 mph 7 mph 86% 0.00 in 156 W/m2
10:59 54.1 °F 50 °F 29.76 in SSW 2.3 mph 7 mph 86% 0.00 in 172 W/m2
11:04 54.3 °F 50.2 °F 29.76 in SW 4.4 mph 12 mph 86% 0.00 in 172 W/m2
11:08 54.7 °F 50.3 °F 29.76 in WSW 4.5 mph 12 mph 85.5% 0.00 in 169 W/m2
11:14 54.9 °F 50.4 °F 29.75 in SSW 4.5 mph 8 mph 85% 0.00 in 153 W/m2
11:19 55 °F 50.5 °F 29.75 in SW 4 mph 8 mph 85% 0.00 in 125 W/m2
11:24 55.1 °F 50.6 °F 29.75 in SSW 5.8 mph 11 mph 85% 0.00 in 134 W/m2
11:29 55.2 °F 50.7 °F 29.74 in SSW 5 mph 10 mph 84.8% 0.00 in 151 W/m2
11:34 55.5 °F 50.8 °F 29.74 in SSW 4.6 mph 10 mph 84% 0.00 in 171 W/m2
11:39 55.7 °F 50.9 °F 29.73 in SSW 5.8 mph 13 mph 83.8% 0.00 in 202 W/m2
11:44 55.9 °F 50.9 °F 29.73 in South 4.8 mph 9 mph 83% 0.00 in 236 W/m2
11:49 56.2 °F 51.2 °F 29.73 in SSW 5.7 mph 14 mph 83% 0.00 in 232 W/m2
11:54 56.5 °F 51.4 °F 29.72 in SSW 5.6 mph 13 mph 83% 0.00 in 262 W/m2
11:59 56.8 °F 51.5 °F 29.72 in SSW 4.8 mph 12 mph 82.4% 0.00 in 264 W/m2
12:04 57.1 °F 51.7 °F 29.72 in SW 6.2 mph 14 mph 82% 0.00 in 216 W/m2
12:09 57.3 °F 51.8 °F 29.72 in SW 7 mph 14 mph 81.8% 0.00 in 197 W/m2
12:14 57.4 °F 51.6 °F 29.72 in SW 8.2 mph 15 mph 81% 0.00 in 186 W/m2
12:19 57.5 °F 52 °F 29.72 in South 3.5 mph 9 mph 81.8% 0.00 in 195 W/m2
12:24 57.6 °F 52.2 °F 29.72 in SSW 6.3 mph 13 mph 82% 0.00 in 195 W/m2
12:29 57.7 °F 52.3 °F 29.71 in SSW 7.6 mph 18 mph 82% 0.00 in 146 W/m2
12:34 57.7 °F 52.3 °F 29.71 in SSW 6.6 mph 13 mph 82% 0.00 in 163 W/m2
12:39 57.7 °F 52.3 °F 29.71 in SSW 6.3 mph 13 mph 82% 0.00 in 162 W/m2
12:44 57.9 °F 52.5 °F 29.70 in South 6.1 mph 12 mph 82% 0.00 in 139 W/m2
12:49 57.9 °F 52.5 °F 29.70 in SSW 5.5 mph 17 mph 82% 0.00 in 139 W/m2
12:54 57.9 °F 52.5 °F 29.70 in SW 9.2 mph 16 mph 82% 0.00 in 123 W/m2
12:59 57.9 °F 52.5 °F 29.70 in SSW 9.6 mph 16 mph 82% 0.00 in 81 W/m2
13:04 57.7 °F 52.7 °F 29.70 in SW 6.2 mph 14 mph 83% 0.00 in 88 W/m2
13:09 57.6 °F 52.5 °F 29.70 in SW 7.2 mph 13 mph 83.4% 0.01 in 90 W/m2
13:14 57.4 °F 52.5 °F 29.70 in SSW 4.3 mph 11 mph 84% 0.01 in 76 W/m2
13:19 57 °F 52.3 °F 29.69 in SW 8.5 mph 20 mph 84.2% 0.02 in 76 W/m2
13:24 56.8 °F 52.3 °F 29.69 in SW 8.8 mph 20 mph 85% 0.02 in 74 W/m2
13:29 56.7 °F 52.2 °F 29.70 in SW 8.4 mph 19 mph 85% 0.02 in 72 W/m2
13:34 56.6 °F 52.1 °F 29.70 in SSW 8.3 mph 19 mph 85% 0.03 in 77 W/m2
13:39 56.2 °F 52.1 °F 29.69 in SSW 5.2 mph 14 mph 86% 0.03 in 86 W/m2
13:44 56 °F 51.9 °F 29.69 in South 7.2 mph 13 mph 86% 0.04 in 86 W/m2
13:49 55.9 °F 51.8 °F 29.68 in South 8.3 mph 17 mph 86% 0.04 in 88 W/m2
13:54 55.8 °F 51.6 °F 29.68 in SSW 9.2 mph 16 mph 86% 0.04 in 86 W/m2
13:59 55.5 °F 51.4 °F 29.69 in SW 8.6 mph 23 mph 86% 0.04 in 76 W/m2
14:04 55.2 °F 51 °F 29.68 in SW 3.8 mph 13 mph 85.6% 0.05 in 65 W/m2
14:09 55.2 °F 50.6 °F 29.68 in SW 9.8 mph 17 mph 84.8% 0.04 in 65 W/m2
14:14 55.2 °F 50.5 °F 29.68 in SSW 4.5 mph 17 mph 84% 0.04 in 67 W/m2
14:19 55.2 °F 50.6 °F 29.68 in SW 7 mph 13 mph 84.4% 0.04 in 91 W/m2
14:24 55.4 °F 50.9 °F 29.67 in SSW 8.8 mph 14 mph 85% 0.03 in 91 W/m2
14:29 55.6 °F 51.3 °F 29.67 in SW 5.3 mph 14 mph 85.6% 0.02 in 90 W/m2
14:34 55.6 °F 51.4 °F 29.67 in South 6 mph 22 mph 86% 0.02 in 90 W/m2
14:39 55.6 °F 51.4 °F 29.67 in SW 7 mph 16 mph 86% 0.02 in 90 W/m2
14:44 55.6 °F 51.6 °F 29.66 in SSW 8.8 mph 17 mph 86.6% 0.02 in 84 W/m2
14:49 55.6 °F 51.8 °F 29.66 in SSW 8.4 mph 19 mph 87% 0.01 in 91 W/m2
14:54 55.5 °F 51.9 °F 29.65 in South 10.1 mph 19 mph 87.4% 0.01 in 109 W/m2
14:59 55.4 °F 52 °F 29.65 in South 5.3 mph 16 mph 88% 0.01 in 109 W/m2
15:04 55.4 °F 52.1 °F 29.64 in SSW 6.4 mph 13 mph 88.4% 0.00 in 93 W/m2
15:09 55.4 °F 52.2 °F 29.64 in South 7.9 mph 18 mph 89% 0.01 in 84 W/m2
15:14 55.6 °F 52.3 °F 29.63 in SSW 5.8 mph 14 mph 89% 0.01 in 74 W/m2
15:19 55.6 °F 52.3 °F 29.62 in South 5.5 mph 16 mph 89% 0.02 in 53 W/m2
15:24 55.6 °F 52.6 °F 29.62 in SSW 8 mph 15 mph 89.8% 0.02 in 46 W/m2
15:29 55.6 °F 52.7 °F 29.62 in South 6.2 mph 18 mph 90% 0.03 in 40 W/m2
15:34 55.8 °F 52.9 °F 29.61 in SSW 6.3 mph 15 mph 90% 0.04 in 39 W/m2
15:39 55.8 °F 52.9 °F 29.61 in SSW 6.4 mph 16 mph 90% 0.04 in 44 W/m2
15:44 55.7 °F 52.8 °F 29.60 in SSE 7.8 mph 16 mph 90% 0.05 in 62 W/m2
15:49 55.8 °F 52.9 °F 29.59 in South 6.5 mph 15 mph 90% 0.06 in 65 W/m2
15:54 55.8 °F 53.1 °F 29.59 in South 8.4 mph 18 mph 90.8% 0.06 in 60 W/m2
15:59 55.9 °F 53.3 °F 29.58 in South 10 mph 18 mph 91% 0.06 in 44 W/m2
16:04 55.9 °F 53.4 °F 29.58 in South 6.2 mph 16 mph 91% 0.06 in 44 W/m2
16:09 56.1 °F 53.6 °F 29.58 in South 8.8 mph 19 mph 91% 0.06 in 37 W/m2
16:14 56.1 °F 53.6 °F 29.58 in SSW 10.7 mph 24 mph 91% 0.06 in 39 W/m2
16:19 56.1 °F 53.6 °F 29.58 in SSW 8.6 mph 19 mph 91% 0.06 in 47 W/m2
16:24 56.1 °F 53.6 °F 29.57 in South 6.2 mph 15 mph 91% 0.05 in 40 W/m2
16:29 56.1 °F 53.6 °F 29.57 in SW 9 mph 22 mph 91% 0.04 in 42 W/m2
16:34 56.1 °F 53.6 °F 29.57 in SW 10.6 mph 22 mph 91% 0.04 in 37 W/m2
16:39 56.1 °F 53.6 °F 29.57 in SW 7.8 mph 15 mph 91% 0.03 in 26 W/m2
16:44 56.3 °F 53.8 °F 29.57 in SSW 7.4 mph 19 mph 91% 0.03 in 37 W/m2
16:49 56.3 °F 53.8 °F 29.57 in SSW 10.2 mph 20 mph 91% 0.02 in 49 W/m2
16:54 56.6 °F 54 °F 29.57 in SSW 10.6 mph 21 mph 91% 0.02 in 49 W/m2
16:59 56.7 °F 54.1 °F 29.56 in SSW 12.2 mph 21 mph 91% 0.02 in 51 W/m2
17:04 56.7 °F 54.2 °F 29.56 in SSW 9.8 mph 21 mph 91% 0.02 in 33 W/m2
17:09 56.8 °F 54.3 °F 29.55 in South 9 mph 18 mph 91% 0.02 in 33 W/m2
17:14 56.8 °F 54.3 °F 29.55 in South 7 mph 19 mph 91% 0.02 in 35 W/m2
17:19 56.8 °F 54.4 °F 29.54 in South 8.2 mph 19 mph 91.2% 0.02 in 33 W/m2
17:24 57 °F 54.7 °F 29.54 in SSW 8.6 mph 17 mph 91.8% 0.02 in 19 W/m2
17:29 57 °F 54.7 °F 29.54 in SSW 7.8 mph 21 mph 92% 0.02 in 19 W/m2
17:34 57 °F 54.7 °F 29.54 in SSW 11.4 mph 19 mph 92% 0.03 in 23 W/m2
17:39 57.4 °F 55 °F 29.53 in SSW 8.2 mph 22 mph 92% 0.02 in 18 W/m2
17:44 57.4 °F 55 °F 29.53 in SSW 7.9 mph 22 mph 92% 0.02 in 16 W/m2
17:49 57.6 °F 55.2 °F 29.53 in SSW 9.4 mph 19 mph 92% 0.02 in 14 W/m2
17:54 57.6 °F 55.2 °F 29.53 in SSW 7.2 mph 17 mph 92% 0.02 in 9 W/m2
17:59 57.6 °F 55.2 °F 29.52 in SSW 8.2 mph 15 mph 92% 0.02 in 11 W/m2
18:04 57.6 °F 55.2 °F 29.52 in SSW 5.6 mph 15 mph 92% 0.03 in 12 W/m2
18:09 57.6 °F 55.3 °F 29.51 in SSW 7.5 mph 17 mph 92% 0.03 in 9 W/m2
18:14 57.7 °F 55.4 °F 29.51 in SSW 10.1 mph 19 mph 92% 0.02 in 11 W/m2
18:19 57.7 °F 55.4 °F 29.50 in SW 8 mph 14 mph 92% 0.03 in 7 W/m2
18:24 57.7 °F 55.4 °F 29.50 in SSW 7.4 mph 18 mph 92% 0.02 in 9 W/m2
18:29 57.7 °F 55.4 °F 29.50 in SSW 8 mph 18 mph 92% 0.03 in 7 W/m2
18:34 57.8 °F 55.5 °F 29.51 in SW 9.2 mph 19 mph 92% 0.03 in 5 W/m2
18:39 57.9 °F 55.6 °F 29.50 in SSW 11 mph 19 mph 92% 0.02 in 9 W/m2
18:44 57.9 °F 55.6 °F 29.50 in SW 12.6 mph 23 mph 92% 0.02 in 7 W/m2
18:49 58.1 °F 55.8 °F 29.50 in SSW 7 mph 21 mph 92% 0.02 in 0 W/m2
18:54 58.1 °F 55.8 °F 29.49 in SW 12 mph 18 mph 92% 0.02 in 0 W/m2
18:59 58.1 °F 55.8 °F 29.50 in SW 7.5 mph 18 mph 92% 0.02 in 0 W/m2
19:04 58.1 °F 55.8 °F 29.50 in SW 7.8 mph 13 mph 92% 0.02 in 0 W/m2
19:09 58.2 °F 55.9 °F 29.49 in WSW 7.4 mph 19 mph 92.2% 0.02 in 0 W/m2
19:14 58.3 °F 56.3 °F 29.49 in SW 8.2 mph 18 mph 93% 0.02 in 0 W/m2
19:19 58.3 °F 56.3 °F 29.49 in SSW 8.7 mph 14 mph 93% 0.02 in 0 W/m2
19:24 58.4 °F 56.4 °F 29.49 in WSW 6.8 mph 14 mph 93% 0.02 in 0 W/m2
19:29 58.5 °F 56.5 °F 29.49 in SSW 9.4 mph 18 mph 93% 0.02 in 0 W/m2
19:34 58.6 °F 56.7 °F 29.49 in SSW 8.2 mph 16 mph 93% 0.02 in 0 W/m2
19:39 58.7 °F 56.7 °F 29.49 in SW 10 mph 14 mph 93% 0.02 in 0 W/m2
19:44 58.8 °F 56.8 °F 29.49 in SW 7 mph 13 mph 93% 0.02 in 0 W/m2
19:49 58.8 °F 56.8 °F 29.49 in SW 9 mph 16 mph 93% 0.02 in 0 W/m2
19:54 59.1 °F 57.1 °F 29.49 in SW 7.4 mph 18 mph 93% 0.02 in 0 W/m2
19:59 59.3 °F 57.3 °F 29.49 in SW 7.8 mph 18 mph 93% 0.02 in 0 W/m2
20:04 59.4 °F 57.4 °F 29.49 in WSW 8.4 mph 16 mph 93% 0.02 in 0 W/m2
20:09 59.4 °F 57.4 °F 29.49 in WSW 8 mph 15 mph 93% 0.02 in 0 W/m2
20:14 59.4 °F 57.4 °F 29.49 in SW 8.4 mph 17 mph 93% 0.02 in 0 W/m2
20:19 59.4 °F 57.4 °F 29.49 in West 8.8 mph 15 mph 93% 0.02 in 0 W/m2
20:24 59.4 °F 57.4 °F 29.50 in West 7 mph 15 mph 93% 0.02 in 0 W/m2
20:29 59.4 °F 57.4 °F 29.50 in WNW 6.1 mph 14 mph 93% 0.02 in 0 W/m2
20:34 59.4 °F 57.4 °F 29.51 in West 8.8 mph 18 mph 93% 0.02 in 0 W/m2
20:39 59.4 °F 57.4 °F 29.51 in West 10 mph 18 mph 93% 0.02 in 0 W/m2
20:44 59.4 °F 57.4 °F 29.50 in West 7.2 mph 16 mph 93% 0.02 in 0 W/m2
20:49 59.4 °F 57.4 °F 29.51 in West 6.3 mph 13 mph 93% 0.02 in 0 W/m2
20:54 59.4 °F 57.4 °F 29.51 in West 6.2 mph 12 mph 93% 0.02 in 0 W/m2
20:59 59.4 °F 57.4 °F 29.51 in West 5.1 mph 11 mph 93% 0.02 in 0 W/m2
21:04 59.3 °F 57.3 °F 29.51 in West 4.6 mph 12 mph 93% 0.02 in 0 W/m2
21:09 59.3 °F 57.3 °F 29.52 in West 6.8 mph 12 mph 93% 0.02 in 0 W/m2
21:14 59.4 °F 57.4 °F 29.51 in West 5.6 mph 12 mph 93% 0.02 in 0 W/m2
21:19 59.2 °F 57.2 °F 29.51 in West 5.6 mph 10 mph 93% 0.02 in 0 W/m2
21:24 59.2 °F 57.2 °F 29.51 in West 4.4 mph 11 mph 93% 0.02 in 0 W/m2
21:29 59.2 °F 57.2 °F 29.51 in West 5.2 mph 11 mph 93% 0.02 in 0 W/m2
21:34 59.2 °F 57.2 °F 29.52 in West 8.6 mph 15 mph 93% 0.01 in 0 W/m2
21:39 59 °F 57 °F 29.52 in West 7 mph 11 mph 93% 0.00 in 0 W/m2
21:44 59 °F 57 °F 29.52 in West 6.1 mph 15 mph 93% 0.00 in 0 W/m2
21:49 58.9 °F 56.9 °F 29.52 in West 5.4 mph 11 mph 93% 0.00 in 0 W/m2
21:54 58.8 °F 56.8 °F 29.52 in West 6 mph 11 mph 93% 0.00 in 0 W/m2
21:59 58.8 °F 56.8 °F 29.52 in West 6.8 mph 12 mph 93% 0.00 in 0 W/m2
22:04 58.8 °F 56.8 °F 29.52 in West 6.5 mph 17 mph 93% 0.00 in 0 W/m2
22:09 58.8 °F 56.8 °F 29.52 in WNW 7 mph 17 mph 93% 0.00 in 0 W/m2
22:14 58.8 °F 56.8 °F 29.52 in West 10.2 mph 15 mph 93% 0.00 in 0 W/m2
22:19 58.8 °F 56.8 °F 29.52 in West 7.1 mph 16 mph 93% 0.00 in 0 W/m2
22:24 58.8 °F 56.7 °F 29.52 in West 8.5 mph 15 mph 92.8% 0.00 in 0 W/m2
22:29 58.6 °F 56.3 °F 29.52 in West 5.6 mph 10 mph 92% 0.00 in 0 W/m2
22:34 58.6 °F 56.3 °F 29.52 in West 5.5 mph 12 mph 92% 0.00 in 0 W/m2
22:39 58.5 °F 56.1 °F 29.52 in West 8.6 mph 11 mph 92% 0.00 in 0 W/m2
22:44 58.5 °F 56.1 °F 29.52 in West 5.3 mph 12 mph 92% 0.00 in 0 W/m2
22:49 58.5 °F 56.1 °F 29.52 in WNW 7.5 mph 10 mph 92% 0.00 in 0 W/m2
22:54 58.5 °F 56.1 °F 29.53 in West 6.8 mph 13 mph 92% 0.00 in 0 W/m2
22:59 58.5 °F 56.1 °F 29.53 in West 4.3 mph 9 mph 92% 0.00 in 0 W/m2
23:04 58.3 °F 55.9 °F 29.53 in WNW 5.8 mph 11 mph 92% 0.00 in 0 W/m2
23:09 58.3 °F 55.9 °F 29.53 in WNW 5.6 mph 9 mph 92% 0.00 in 0 W/m2
23:14 58.3 °F 55.9 °F 29.53 in West 4.9 mph 9 mph 92% 0.00 in 0 W/m2
23:19 58.1 °F 55.8 °F 29.53 in West 6.2 mph 11 mph 92% 0.00 in 0 W/m2
23:23 57.9 °F 55.6 °F 29.54 in West 8.1 mph 11 mph 92% 0.00 in 0 W/m2
23:29 57.9 °F 55.6 °F 29.54 in West 6 mph 13 mph 92% 0.00 in 0 W/m2
23:34 57.9 °F 55.6 °F 29.54 in WNW 4.6 mph 11 mph 92% 0.00 in 0 W/m2
23:39 57.8 °F 55.5 °F 29.54 in West 6.4 mph 10 mph 92% 0.00 in 0 W/m2
23:44 57.6 °F 55.2 °F 29.54 in West 6.4 mph 10 mph 91.4% 0.00 in 0 W/m2
23:49 57.6 °F 55 °F 29.54 in West 6.7 mph 12 mph 91% 0.00 in 0 W/m2
23:54 57.6 °F 55 °F 29.55 in West 7.6 mph 12 mph 91% 0.00 in 0 W/m2
23:59 57.4 °F 54.9 °F 29.55 in West 6 mph 10 mph 91% 0.00 in 0 W/m2
Bath Spa Weather
Compliments of Weather Underground - 2 mb